• Join FlightAware (Why Join?)
  • Login
  • US Flag 
05:58AM EDT


 

Airport Tracker/Info


-or-


 

Live Flight TrackerFlight Track Log ✈ N212JL ✈ 06-May-2013 ✈ KOQN - KCDW

Flight Track Log - Related Links

Times and Time Zones

All times are in EDT time to prevent confusion due to time zone crossing. See the N212JL flight status page for this flight to view local times or setup timezone preferences in your user account.

Time Position Orientation Groundspeed Altitude Reporting Facility
EDT Latitude Longitude Course Direction KTS MPH feet Rate Location/Type
07:14PM 39.9667 -75.5833 46° Northeast 192 221 2,100  Level Philadelphia TRACON
07:15PM 39.9500 -75.6500 252° West 215 247 3,000 420 Climbing Philadelphia TRACON
07:16PM 40.0000 -75.6500 360° North 225 259 3,000 300 Level Philadelphia TRACON
07:18PM 40.0833 -75.5333 47° Northeast 214 246 4,000 300 Climbing Philadelphia TRACON
07:18PM 40.1167 -75.4667 57° Northeast 227 261 4,000  Level Philadelphia TRACON
07:19PM 40.0412 -75.4785 46° Northeast  Level FlightAware Approximate
07:19PM 40.1500 -75.4000 57° Northeast 234 269 4,000  Level Philadelphia TRACON
07:20PM 40.2000 -75.3500 37° Northeast 233 268 4,100  Climbing Philadelphia TRACON
07:23PM 40.2538 -75.2350 58° Northeast  Level FlightAware Approximate
07:24PM 40.3333 -75.1500 58° Northeast 234 269 4,000  Level Philadelphia TRACON
07:26PM 40.3706 -75.0212 52° Northeast  Level FlightAware Approximate
07:26PM 40.4500 -74.9667 52° Northeast 235 270 4,000  Level New York TRACON
07:27PM 40.4833 -74.9000 57° Northeast 234 269 4,000  Level New York TRACON
07:29PM 40.5270 -74.8129 57° Northeast  Level FlightAware Approximate
07:29PM 40.5667 -74.7667 57° Northeast 235 270 4,000  Level New York TRACON
07:30PM 40.6167 -74.7167 37° Northeast 239 275 4,000  Level New York TRACON
07:31PM 40.6667 -74.6667 37° Northeast 240 276 4,000  Level New York TRACON
07:32PM 40.7333 -74.6167 30° Northeast 236 272 4,000 -240 Level New York TRACON
07:33PM 40.7667 -74.5500 57° Northeast 237 273 3,600 -540 Descending New York TRACON
07:34PM 40.8000 -74.4833 57° Northeast 217 250 3,000 -300 Descending New York TRACON
07:35PM 40.8333 -74.4167 57° Northeast 195 224 3,000 -60 Level New York TRACON
07:36PM 40.8667 -74.3833 37° Northeast 188 216 2,900 -660 Descending New York TRACON
07:38PM 40.8752 -74.2814 52° Northeast  Level Estimated
07:38PM 40.9167 -74.2667 52° Northeast 161 185 1,100  Level New York TRACON
07:39PM 40.9000 -74.2833 217° Southwest 146 168 1,300  Climbing New York TRACON
07:40PM 40.8833 -74.2500 123° Southeast 145 167 1,200 -60 Descending New York TRACON
07:42PM 40.8667 -74.2667 180° South  Level FlightAware Approximate
07:43PM 40.8833 -74.2333 180° South 106 122 1,200  Level New York TRACON
07:45PM 40.8667 -74.2667 180° South  Level FlightAware Approximate
07:47PM 40.8833 -74.2333 180° South 106 122 1,200  Level New York TRACON
07:49PM 40.8752 -74.2814 180° South  Level Estimated
07:52PM 40.8752 -74.2814 180° South  Level Estimated